This is the latest recevied weather packets stored in our database for station/object VK5ARG-5. If no packets are shown the sender has not sent any weather packets the latest 10 day(s).
| Time | Temp. | Humidity | Pressure | Rain* | Wind** | Luminosity | Snow |
|---|---|---|---|---|---|---|---|
| 1777884349 | 12.22° C | 87% | - | 0 mm | - | - | - |
| 1777878325 | 15° C | 74% | - | 0 mm | - | - | - |
| 1777874728 | 14.44° C | 77% | - | 0 mm | - | - | - |
| 1777871728 | 14.44° C | 85% | - | 0.25 mm | - | - | - |
| 1777871123 | 14.44° C | 88% | - | 0.25 mm | - | - | - |
| 1777870528 | 14.44° C | 86% | - | 0.25 mm | - | - | - |
| 1777868726 | 13.33° C | 88% | - | 0 mm | - | - | - |
| 1777865121 | 15° C | 84% | - | 0 mm | - | - | - |
| 1777863328 | 14.44° C | 89% | - | 0 mm | - | - | - |
| 1777861525 | 14.44° C | 88% | - | 0 mm | - | - | - |
| 1777859722 | 13.89° C | 93% | - | 0 mm | - | - | - |
| 1777857346 | 12.22° C | 99% | - | 0 mm | - | - | - |
| 1777855521 | 11.67° C | 99% | - | 0.25 mm | - | - | - |
| 1777852521 | 11.67° C | 99% | - | 1.52 mm | - | - | - |
| 1777850749 | 11.11° C | 99% | - | 3.05 mm | - | - | - |
| 1777850124 | 11.11° C | 99% | - | 2.79 mm | - | - | - |
| 1777845923 | 10.56° C | 99% | - | 0.51 mm | - | - | - |
| 1777845328 | 10.56° C | 99% | - | 0.51 mm | - | - | - |
| 1777844142 | 10.56° C | 99% | - | 0.25 mm | - | - | - |
| 1777829144 | 10.56° C | 94% | - | 0 mm | - | - | - |
| 1777827946 | 10.56° C | 94% | - | 0 mm | - | - | - |
| 1777826122 | 10.56° C | 94% | - | 0 mm | - | - | - |
| 1777824923 | 10.56° C | 93% | - | 0 mm | - | - | - |
| 1777823120 | 10.56° C | 91% | - | 0 mm | - | - | - |
| 1777821923 | 10.56° C | 91% | - | 0 mm | - | - | - |
* Rain latest hour (hover to see other rain measurements)
** Current wind speed in m/s (hover to see current wind gust speed)